Time;durP1;ratioP1;P1;durP2;ratioP2;P2;SDS_P1;SDS_P2;PMS_P1;PMS_P2;Temp;Humidity;BMP_temperature;BMP_pressure;BME280_temperature;BME280_humidity;BME280_pressure;Samples;Min_cycle;Max_cycle;Signal;HPM_P1;HPM_P2
2023/10/08 00:01:17;;;;;;;8.10;2.10;;;;;;;23.14;28.75;98883.98;108177;1251;72433;-67
2023/10/08 00:03:49;;;;;;;6.00;1.70;;;;;;;23.21;29.64;98889.52;108213;1251;69844;-66
2023/10/08 00:06:19;;;;;;;8.90;2.80;;;;;;;23.22;29.08;98888.66;108221;1256;72962;-67
2023/10/08 00:08:47;;;;;;;6.10;2.00;;;;;;;23.28;28.95;98889.09;108198;1251;60427;-67
2023/10/08 00:11:18;;;;;;;5.40;2.10;;;;;;;22.66;30.18;98893.30;108150;1251;59211;-68
2023/10/08 00:13:48;;;;;;;4.90;1.90;;;;;;;22.35;30.29;98896.34;108181;1256;74403;-67
2023/10/08 00:16:16;;;;;;;8.20;2.40;;;;;;;22.16;30.49;98900.68;108191;1251;70599;-66
2023/10/08 00:18:51;;;;;;;6.10;2.10;;;;;;;22.24;30.68;98907.00;108160;1254;70225;-66
2023/10/08 00:21:26;;;;;;;3.80;1.60;;;;;;;22.22;30.65;98906.70;108205;1251;60407;-66
2023/10/08 00:23:57;;;;;;;4.40;1.60;;;;;;;21.96;31.47;98914.19;108196;1251;60332;-67
2023/10/08 00:26:27;;;;;;;5.40;1.90;;;;;;;21.88;31.04;98924.48;108172;1251;73764;-67
2023/10/08 00:28:59;;;;;;;6.70;2.10;;;;;;;21.85;30.46;98923.38;108294;1251;69907;-67
2023/10/08 00:31:40;;;;;;;3.90;2.00;;;;;;;21.30;30.71;98933.75;108219;1253;74465;-67
2023/10/08 00:34:12;;;;;;;4.30;1.80;;;;;;;21.45;30.39;98924.27;108191;1251;60436;-66
2023/10/08 00:36:43;;;;;;;5.30;2.00;;;;;;;21.64;29.78;98924.34;108221;1251;60401;-67
2023/10/08 00:39:16;;;;;;;7.20;2.20;;;;;;;21.43;29.97;98926.23;108240;1251;72570;-67
2023/10/08 00:41:44;;;;;;;5.10;1.90;;;;;;;21.22;29.94;98920.98;108355;1251;69026;-67
2023/10/08 00:44:15;;;;;;;4.50;1.70;;;;;;;21.08;30.31;98926.89;108243;1250;72725;-65
2023/10/08 00:46:47;;;;;;;;;;;;;;;20.92;29.43;98922.10;108350;1251;60699;-66
2023/10/08 00:52:00;;;;;;;8.00;1.90;;;;;;;20.95;29.55;98910.52;108312;1256;73817;-66
2023/10/08 00:54:32;;;;;;;3.20;1.40;;;;;;;20.70;30.55;98903.88;108271;1253;69469;-66
2023/10/08 00:57:04;;;;;;;6.40;1.90;;;;;;;20.02;30.72;98911.45;108365;1251;72685;-67
2023/10/08 00:59:41;;;;;;;6.30;2.10;;;;;;;20.01;31.82;98917.53;108419;1252;60309;-65
2023/10/08 01:02:14;;;;;;;4.30;1.70;;;;;;;20.17;31.91;98914.91;108364;1252;60536;-67
2023/10/08 01:04:44;;;;;;;6.50;2.00;;;;;;;20.13;32.13;98915.23;108214;1250;73779;-67
2023/10/08 01:07:13;;;;;;;5.50;2.20;;;;;;;20.47;32.11;98923.92;108350;1251;70372;-67
2023/10/08 01:09:42;;;;;;;5.50;1.70;;;;;;;20.48;31.44;98922.17;108221;1251;71938;-68
2023/10/08 01:12:19;;;;;;;4.30;1.70;;;;;;;20.37;31.42;98924.57;108288;1254;60442;-67
2023/10/08 01:14:49;;;;;;;3.20;1.40;;;;;;;20.25;31.74;98923.86;108251;1251;60396;-67
2023/10/08 01:17:19;;;;;;;4.40;1.70;;;;;;;19.86;31.69;98917.53;108359;1250;73894;-67
2023/10/08 01:19:50;;;;;;;5.20;1.80;;;;;;;19.82;32.37;98916.59;108378;1251;70281;-64
2023/10/08 01:22:19;;;;;;;6.60;1.90;;;;;;;19.95;32.35;98917.69;108348;1254;73491;-67
2023/10/08 01:24:49;;;;;;;6.20;1.70;;;;;;;20.01;32.20;98913.38;108230;1250;60373;-67
2023/10/08 01:27:24;;;;;;;6.10;1.70;;;;;;;20.05;32.32;98911.98;108221;1250;60397;-66
2023/10/08 01:29:52;;;;;;;7.20;2.40;;;;;;;19.91;31.95;98913.95;108201;1251;73879;-67
2023/10/08 01:32:21;;;;;;;4.10;1.70;;;;;;;20.01;31.97;98916.11;108408;1251;68876;-67
2023/10/08 01:34:49;;;;;;;5.00;1.60;;;;;;;20.08;32.21;98921.45;108258;1256;72434;-67
2023/10/08 01:37:17;;;;;;;4.80;1.80;;;;;;;20.22;31.59;98923.13;108200;1251;60415;-67
2023/10/08 01:39:45;;;;;;;6.20;1.80;;;;;;;20.44;31.75;98924.04;108234;1250;60242;-64
2023/10/08 01:42:20;;;;;;;4.80;1.90;;;;;;;20.34;31.39;98928.72;108281;1250;73815;-66
2023/10/08 01:44:50;;;;;;;7.10;2.20;;;;;;;20.35;31.27;98931.88;108420;1251;70131;-66
2023/10/08 01:47:19;;;;;;;5.30;1.80;;;;;;;20.31;31.84;98931.90;108244;1254;72971;-67
2023/10/08 01:49:46;;;;;;;4.90;1.70;;;;;;;20.07;31.61;98927.30;108306;1252;60392;-67
2023/10/08 01:52:21;;;;;;;5.20;1.90;;;;;;;20.39;31.66;98924.87;108370;1251;60620;-67
2023/10/08 01:54:49;;;;;;;4.80;1.80;;;;;;;20.35;31.68;98925.95;108383;1251;73816;-66
2023/10/08 01:57:16;;;;;;;5.00;1.70;;;;;;;20.63;31.10;98923.30;108398;1251;70196;-67
2023/10/08 01:59:45;;;;;;;6.00;2.10;;;;;;;20.86;31.19;98913.21;108226;1250;70216;-66
2023/10/08 02:02:15;;;;;;;6.60;2.10;;;;;;;20.83;30.82;98914.00;108321;1254;60012;-67
2023/10/08 02:04:43;;;;;;;4.60;1.70;;;;;;;20.54;31.12;98904.54;108311;1251;59049;-66
2023/10/08 02:07:14;;;;;;;4.60;1.70;;;;;;;20.52;31.51;98908.52;108270;1251;73802;-67
2023/10/08 02:09:41;;;;;;;5.60;1.40;;;;;;;20.55;30.26;98911.40;108280;1250;70120;-68
2023/10/08 02:12:09;;;;;;;5.80;1.70;;;;;;;20.38;30.54;98913.17;108400;1253;72695;-68
2023/10/08 02:14:40;;;;;;;3.40;1.50;;;;;;;20.68;30.42;98917.98;108460;1251;60440;-66
2023/10/08 02:17:09;;;;;;;5.50;1.30;;;;;;;20.73;30.55;98915.91;108298;1251;60293;-67
2023/10/08 02:19:38;;;;;;;2.80;1.70;;;;;;;20.52;31.02;98918.81;108318;1250;73862;-67
2023/10/08 02:22:09;;;;;;;6.40;2.00;;;;;;;20.42;30.24;98914.41;108328;1251;70110;-67
2023/10/08 02:24:37;;;;;;;3.80;1.70;;;;;;;20.15;30.49;98916.86;108263;1251;72664;-67
2023/10/08 02:27:06;;;;;;;8.30;1.90;;;;;;;20.13;30.89;98910.11;108191;1251;60087;-67
2023/10/08 02:29:33;;;;;;;5.70;2.10;;;;;;;19.97;30.53;98908.58;108269;1251;60259;-67
2023/10/08 02:32:00;;;;;;;4.20;1.80;;;;;;;20.11;30.74;98914.42;108266;1250;71864;-67
2023/10/08 02:37:19;;;;;;;5.90;1.70;;;;;;;18.61;33.05;98921.73;104966;1289;601189;-68
2023/10/08 02:39:48;;;;;;;10.20;2.00;;;;;;;19.92;31.45;98918.52;108139;1253;59045;-65
2023/10/08 02:42:16;;;;;;;6.90;1.60;;;;;;;19.99;30.82;98924.27;108115;1254;59973;-66
2023/10/08 02:44:44;;;;;;;6.80;1.40;;;;;;;19.96;31.08;98933.13;108160;1252;71442;-67
2023/10/08 02:47:11;;;;;;;5.40;1.70;;;;;;;19.95;31.28;98931.96;108154;1254;70240;-66
2023/10/08 02:49:44;;;;;;;10.70;1.90;;;;;;;19.66;31.15;98943.77;108178;1253;73043;-66
2023/10/08 02:52:12;;;;;;;2.60;1.30;;;;;;;19.89;31.49;98947.08;108012;1251;59546;-67
2023/10/08 02:54:40;;;;;;;8.50;1.50;;;;;;;19.88;31.30;98949.67;108320;1251;59256;-66
2023/10/08 02:57:14;;;;;;;15.20;1.70;;;;;;;19.69;30.70;98957.84;108278;1250;70969;-64
2023/10/08 02:59:45;;;;;;;5.40;1.40;;;;;;;19.67;31.71;98957.19;108401;1251;70301;-67
2023/10/08 03:02:21;;;;;;;4.10;1.30;;;;;;;19.81;30.71;98957.46;108327;1254;72440;-66
2023/10/08 03:04:52;;;;;;;6.90;1.60;;;;;;;19.81;30.53;98958.19;108354;1251;60673;-66
2023/10/08 03:07:32;;;;;;;4.70;1.60;;;;;;;19.82;30.69;98958.79;108331;1250;59445;-66
2023/10/08 03:10:03;;;;;;;9.90;1.80;;;;;;;19.66;30.26;98957.45;108320;1250;72948;-66
2023/10/08 03:12:35;;;;;;;4.80;1.60;;;;;;;19.53;30.63;98963.29;108375;1251;70275;-66
2023/10/08 03:15:14;;;;;;;4.20;1.50;;;;;;;19.20;31.75;98974.11;108251;1251;72708;-66
2023/10/08 03:17:51;;;;;;;7.50;1.60;;;;;;;19.09;30.87;98983.35;108361;1251;59604;-66
2023/10/08 03:23:12;;;;;;;7.90;1.40;;;;;;;18.97;31.48;98982.08;108341;1251;73071;-66
2023/10/08 03:25:45;;;;;;;4.00;1.10;;;;;;;18.89;30.71;98977.11;108326;1251;69516;-67
2023/10/08 03:28:16;;;;;;;6.30;1.50;;;;;;;18.88;30.71;98981.13;108280;1253;72995;-66
2023/10/08 03:30:50;;;;;;;6.60;1.20;;;;;;;18.90;30.35;98979.67;108324;1251;59736;-67
2023/10/08 03:33:26;;;;;;;5.30;1.70;;;;;;;19.14;29.92;98982.90;108276;1250;59534;-67
2023/10/08 03:35:55;;;;;;;4.30;1.40;;;;;;;19.11;30.32;98977.08;108313;1250;72158;-66
2023/10/08 03:38:44;;;;;;;8.60;2.20;;;;;;;19.18;30.55;98982.68;108256;1251;70066;-65
2023/10/08 03:41:18;;;;;;;3.90;1.10;;;;;;;19.01;30.61;98977.84;108250;1250;72425;-66
2023/10/08 03:44:01;;;;;;;7.00;1.20;;;;;;;19.16;30.80;98977.41;108273;1252;59476;-67
2023/10/08 03:46:30;;;;;;;4.20;1.50;;;;;;;18.89;30.91;98977.14;108296;1253;59463;-66
2023/10/08 03:49:04;;;;;;;4.20;1.50;;;;;;;18.96;30.66;98976.11;108215;1252;71767;-64
2023/10/08 03:51:39;;;;;;;5.50;1.40;;;;;;;18.84;31.59;98974.33;108197;1253;69042;-67
2023/10/08 03:56:37;;;;;;;6.70;1.50;;;;;;;18.59;31.30;98985.45;108183;1254;59729;-67
2023/10/08 04:01:54;;;;;;;6.50;1.40;;;;;;;18.19;32.15;98996.23;108147;1253;73026;-67
2023/10/08 04:04:30;;;;;;;5.30;1.50;;;;;;;18.09;32.07;98995.98;108130;1254;69023;-66
2023/10/08 04:07:24;;;;;;;5.00;1.30;;;;;;;17.94;32.47;98990.95;108108;1253;72849;-65
2023/10/08 04:09:47;;;;;;;6.10;1.40;;;;;;;17.95;31.83;98989.56;108190;1253;60040;-66
2023/10/08 04:12:18;;;;;;;6.40;1.30;;;;;;;17.93;31.99;98997.37;108096;1252;59949;-67
2023/10/08 04:14:46;;;;;;;5.50;1.40;;;;;;;17.89;32.28;99003.98;108125;1253;71846;-65
2023/10/08 04:17:22;;;;;;;6.60;1.40;;;;;;;17.86;32.02;99003.89;108152;1254;69964;-66
2023/10/08 04:19:51;;;;;;;4.40;1.20;;;;;;;18.03;31.99;99005.98;108238;1252;71184;-66
2023/10/08 04:22:18;;;;;;;9.50;2.00;;;;;;;18.17;31.44;99009.36;108108;1254;60082;-63
2023/10/08 04:24:46;;;;;;;6.80;1.50;;;;;;;18.14;31.14;99014.57;108116;1253;60052;-66
2023/10/08 04:27:15;;;;;;;2.50;1.10;;;;;;;18.18;31.27;99022.58;108232;1253;71763;-65
2023/10/08 04:29:42;;;;;;;5.40;1.10;;;;;;;18.03;30.84;99016.44;108170;1253;68977;-68
2023/10/08 04:32:21;;;;;;;4.70;1.60;;;;;;;18.09;31.08;99026.05;108212;1252;71950;-67
2023/10/08 04:34:49;;;;;;;4.50;1.10;;;;;;;18.22;31.16;99036.29;108144;1254;59762;-66
2023/10/08 04:37:20;;;;;;;5.20;1.40;;;;;;;18.29;30.45;99044.05;108302;1253;59589;-66
2023/10/08 04:39:54;;;;;;;5.10;1.20;;;;;;;18.25;30.85;99048.12;108119;1256;72061;-65
2023/10/08 04:42:25;;;;;;;2.50;1.00;;;;;;;18.02;30.36;99054.04;108230;1254;70757;-66
2023/10/08 04:44:54;;;;;;;4.50;1.20;;;;;;;18.00;30.15;99048.83;108296;1251;72438;-66
2023/10/08 04:47:31;;;;;;;3.80;1.50;;;;;;;18.12;30.99;99048.69;108178;1253;59739;-66
2023/10/08 04:49:59;;;;;;;2.00;0.90;;;;;;;17.91;30.15;99049.09;108257;1251;59547;-65
2023/10/08 04:52:27;;;;;;;3.00;1.30;;;;;;;17.99;30.63;99051.08;108272;1251;72693;-66
2023/10/08 04:54:56;;;;;;;5.30;1.30;;;;;;;18.07;30.62;99056.57;108250;1251;68963;-67
2023/10/08 04:57:25;;;;;;;2.90;1.30;;;;;;;18.07;30.55;99063.86;108331;1251;71515;-67
2023/10/08 04:59:57;;;;;;;4.20;1.50;;;;;;;18.06;31.17;99070.33;108340;1256;59841;-67
2023/10/08 05:02:48;;;;;;;7.50;1.30;;;;;;;18.06;31.00;99071.76;108368;1251;59933;-66
2023/10/08 05:13:15;;;;;;;4.40;1.60;;;;;;;18.51;31.23;99057.23;108222;1251;60015;-64
2023/10/08 05:21:40;;;;;;;1.90;1.20;;;;;;;18.40;29.24;99072.40;107902;1251;70155;-66
2023/10/08 05:24:08;;;;;;;4.00;1.30;;;;;;;18.41;29.99;99065.08;108227;1255;72613;-67
2023/10/08 05:26:42;;;;;;;3.10;1.20;;;;;;;18.53;29.83;99071.70;108296;1251;59637;-66
2023/10/08 05:35:30;;;;;;;5.00;1.40;;;;;;;18.73;29.85;99104.91;108269;1251;68683;-67
2023/10/08 05:37:37;;;;;;;3.00;1.10;;;;;;;18.97;28.92;99098.45;108301;1253;71667;-68
2023/10/08 05:40:21;;;;;;;5.10;1.20;;;;;;;19.00;29.19;99093.46;108332;1251;60037;-67
2023/10/08 05:43:00;;;;;;;5.30;1.60;;;;;;;19.00;28.86;99083.04;108197;1254;60149;-66
2023/10/08 05:45:30;;;;;;;5.90;1.30;;;;;;;19.21;28.50;99096.11;108248;1253;71741;-67
2023/10/08 05:48:15;;;;;;;3.10;1.10;;;;;;;19.14;28.72;99097.45;108309;1252;68401;-66
2023/10/08 05:50:55;;;;;;;4.60;1.70;;;;;;;19.24;28.79;99112.94;108168;1254;72702;-67
2023/10/08 05:53:43;;;;;;;3.50;1.30;;;;;;;19.04;28.01;99128.02;108345;1254;60009;-67
2023/10/08 05:56:28;;;;;;;2.70;0.90;;;;;;;19.06;28.26;99117.92;108187;1256;59807;-68
2023/10/08 05:59:14;;;;;;;2.60;1.10;;;;;;;19.07;28.50;99117.98;108321;1253;71117;-68
2023/10/08 06:01:45;;;;;;;3.00;1.10;;;;;;;18.98;28.24;99116.77;108170;1252;72440;-67
2023/10/08 06:04:42;;;;;;;3.70;1.30;;;;;;;18.82;28.55;99123.23;108153;1253;71507;-67
2023/10/08 06:07:17;;;;;;;5.40;1.20;;;;;;;18.87;28.65;99128.79;108168;1253;59532;-68
2023/10/08 06:10:01;;;;;;;4.40;1.50;;;;;;;19.08;28.00;99132.46;108128;1253;60241;-68
2023/10/08 06:12:39;;;;;;;3.60;1.10;;;;;;;19.06;28.13;99131.98;108155;1254;73556;-68
2023/10/08 06:15:07;;;;;;;5.10;1.00;;;;;;;18.98;28.37;99129.42;108294;1253;70556;-67
2023/10/08 06:17:55;;;;;;;2.60;1.30;;;;;;;18.98;27.61;99124.63;108257;1253;72733;-68
2023/10/08 06:20:26;;;;;;;2.70;1.30;;;;;;;19.11;28.10;99129.52;108164;1253;59474;-68
2023/10/08 06:22:59;;;;;;;3.40;1.40;;;;;;;19.25;28.20;99127.80;108158;1252;60178;-68
2023/10/08 06:25:27;;;;;;;6.90;1.50;;;;;;;18.96;27.72;99131.41;108107;1254;73061;-68
2023/10/08 06:27:55;;;;;;;2.80;1.10;;;;;;;18.61;28.58;99143.60;108110;1256;69969;-68
2023/10/08 06:30:28;;;;;;;2.00;1.10;;;;;;;18.53;28.57;99148.58;108159;1253;71302;-68
2023/10/08 06:33:00;;;;;;;5.30;1.70;;;;;;;18.49;28.46;99151.95;108148;1253;59580;-68
2023/10/08 06:35:28;;;;;;;2.50;1.20;;;;;;;18.63;28.98;99152.23;108170;1253;59550;-68
2023/10/08 06:37:59;;;;;;;4.60;1.50;;;;;;;18.74;28.65;99150.73;108133;1254;71858;-68
2023/10/08 06:43:12;;;;;;;3.20;1.30;;;;;;;19.00;28.91;99137.96;108212;1252;72730;-68
2023/10/08 06:45:42;;;;;;;2.20;1.00;;;;;;;18.94;28.59;99140.49;108243;1251;60018;-66
2023/10/08 06:48:17;;;;;;;6.10;1.20;;;;;;;18.82;29.18;99146.85;108310;1251;59538;-68
2023/10/08 06:50:48;;;;;;;6.50;1.50;;;;;;;18.75;29.70;99175.88;108281;1251;73649;-66
2023/10/08 06:53:18;;;;;;;3.00;1.30;;;;;;;18.85;29.17;99187.70;108320;1251;68909;-69
2023/10/08 06:55:48;;;;;;;2.50;1.30;;;;;;;18.56;29.47;99182.13;108302;1256;74723;-67
2023/10/08 06:58:17;;;;;;;2.30;1.30;;;;;;;18.50;28.97;99178.90;108315;1251;60565;-67
2023/10/08 07:00:51;;;;;;;3.10;1.30;;;;;;;18.81;29.00;99179.66;108322;1251;60022;-66
2023/10/08 07:03:20;;;;;;;5.20;1.20;;;;;;;18.86;28.85;99176.08;108299;1256;73857;-68
2023/10/08 07:05:57;;;;;;;5.80;1.40;;;;;;;18.78;28.84;99173.50;108234;1251;69947;-67
2023/10/08 07:08:31;;;;;;;2.70;1.10;;;;;;;18.63;29.20;99174.38;108218;1251;71823;-68
2023/10/08 07:11:11;;;;;;;6.30;1.40;;;;;;;18.61;29.51;99182.03;108218;1255;60293;-69
2023/10/08 07:13:42;;;;;;;2.00;1.20;;;;;;;18.66;29.40;99189.77;108166;1251;60928;-68
2023/10/08 07:16:17;;;;;;;4.50;1.20;;;;;;;18.65;29.71;99190.59;108276;1251;72584;-69
2023/10/08 07:18:51;;;;;;;3.90;1.10;;;;;;;18.83;29.92;99193.56;108246;1251;69173;-69
2023/10/08 07:21:28;;;;;;;3.20;1.20;;;;;;;18.96;29.43;99188.67;108279;1251;71150;-68
2023/10/08 07:23:56;;;;;;;2.70;1.20;;;;;;;18.87;30.09;99186.04;108189;1251;60550;-68
2023/10/08 07:26:46;;;;;;;2.70;1.20;;;;;;;18.81;30.01;99185.16;108301;1251;61006;-67
2023/10/08 07:29:17;;;;;;;2.10;1.00;;;;;;;18.92;29.58;99188.70;108295;1251;72678;-68
2023/10/08 07:31:54;;;;;;;4.20;1.30;;;;;;;18.94;30.39;99181.00;108302;1251;70421;-68
2023/10/08 07:36:54;;;;;;;2.40;1.00;;;;;;;18.95;29.84;99185.16;108337;1254;62201;-69
2023/10/08 07:42:08;;;;;;;3.50;1.20;;;;;;;18.70;29.96;99194.23;108299;1254;73769;-69
2023/10/08 07:44:35;;;;;;;3.80;1.20;;;;;;;18.69;30.04;99189.52;108120;1256;68721;-68
2023/10/08 07:47:11;;;;;;;9.70;2.00;;;;;;;18.90;30.04;99188.31;108168;1253;72745;-68
2023/10/08 07:49:39;;;;;;;3.20;1.20;;;;;;;19.06;29.60;99193.15;108156;1254;60292;-68
2023/10/08 07:52:07;;;;;;;2.80;1.30;;;;;;;19.10;30.05;99206.71;108173;1254;60312;-68
2023/10/08 07:54:34;;;;;;;3.00;1.30;;;;;;;19.18;29.82;99200.13;108167;1254;73859;-67
2023/10/08 07:57:08;;;;;;;3.80;1.50;;;;;;;19.35;29.55;99210.21;108121;1254;69955;-68
2023/10/08 07:59:46;;;;;;;2.30;1.10;;;;;;;19.35;30.04;99207.50;108190;1253;71449;-68
2023/10/08 08:02:17;;;;;;;5.70;1.20;;;;;;;19.29;29.73;99209.23;108094;1254;60229;-68
2023/10/08 08:04:46;;;;;;;3.90;1.10;;;;;;;19.44;29.20;99203.50;108153;1252;60441;-66
2023/10/08 08:07:15;;;;;;;3.60;1.40;;;;;;;19.70;29.41;99198.21;108085;1252;73775;-68
2023/10/08 08:09:52;;;;;;;3.80;1.10;;;;;;;20.07;28.57;99189.86;108129;1254;68152;-67
2023/10/08 08:12:21;;;;;;;3.50;1.50;;;;;;;20.36;28.23;99194.55;108182;1254;72833;-69
2023/10/08 08:14:50;;;;;;;2.40;1.00;;;;;;;20.79;27.93;99191.23;108219;1252;60806;-68
2023/10/08 08:17:18;;;;;;;3.70;1.60;;;;;;;21.21;27.30;99196.67;108109;1254;60340;-68
2023/10/08 08:19:49;;;;;;;4.60;1.30;;;;;;;21.55;26.94;99190.09;108156;1252;72804;-67
2023/10/08 08:22:23;;;;;;;2.60;1.20;;;;;;;21.87;26.42;99182.24;108136;1253;68822;-64
2023/10/08 08:25:02;;;;;;;8.20;1.30;;;;;;;22.38;25.79;99189.57;108185;1254;71803;-67
2023/10/08 08:27:33;;;;;;;3.50;1.20;;;;;;;22.79;25.47;99196.65;108128;1255;61807;-67
2023/10/08 08:30:10;;;;;;;2.10;1.20;;;;;;;23.64;24.07;99190.47;108231;1254;60078;-67
2023/10/08 08:32:43;;;;;;;5.60;1.80;;;;;;;24.48;23.52;99192.36;108188;1250;73813;-67
2023/10/08 08:35:11;;;;;;;2.70;1.30;;;;;;;25.26;22.99;99190.14;108319;1250;69411;-69
2023/10/08 08:37:39;;;;;;;2.70;1.10;;;;;;;25.68;22.37;99188.48;108292;1251;72248;-68
2023/10/08 08:40:17;;;;;;;3.50;1.10;;;;;;;26.30;21.43;99176.91;108335;1251;60331;-68
2023/10/08 08:42:48;;;;;;;2.90;1.00;;;;;;;27.04;20.82;99185.39;108275;1251;60452;-67
2023/10/08 08:45:20;;;;;;;5.10;1.40;;;;;;;27.01;19.68;99189.70;108258;1252;72796;-69
2023/10/08 08:47:48;;;;;;;7.10;1.10;;;;;;;27.33;19.61;99197.23;108316;1251;68636;-68
2023/10/08 08:50:17;;;;;;;2.20;0.90;;;;;;;27.83;19.07;99195.92;108271;1251;71412;-68
2023/10/08 08:52:48;;;;;;;1.40;0.80;;;;;;;27.86;18.50;99193.17;108335;1251;60357;-69
2023/10/08 08:55:16;;;;;;;2.20;1.00;;;;;;;27.57;18.74;99196.39;108312;1251;60068;-69
2023/10/08 08:57:50;;;;;;;2.10;0.90;;;;;;;27.31;18.97;99190.38;108315;1251;73931;-68
2023/10/08 09:00:18;;;;;;;2.00;1.00;;;;;;;26.91;19.42;99191.77;108330;1251;69964;-67
2023/10/08 09:02:47;;;;;;;2.10;1.00;;;;;;;26.86;19.42;99186.77;108332;1251;72475;-66
2023/10/08 09:05:25;;;;;;;2.80;1.10;;;;;;;26.84;18.41;99186.50;108273;1251;61538;-70
2023/10/08 09:07:58;;;;;;;2.70;1.00;;;;;;;26.78;19.10;99182.68;108232;1251;60302;-68
2023/10/08 09:10:29;;;;;;;2.90;1.10;;;;;;;26.87;18.99;99182.56;108285;1257;73823;-68
2023/10/08 09:12:58;;;;;;;3.20;1.10;;;;;;;26.76;18.56;99182.23;108287;1251;68848;-68
2023/10/08 09:15:26;;;;;;;5.30;1.30;;;;;;;26.61;18.97;99187.27;108267;1251;71964;-69
2023/10/08 09:17:54;;;;;;;4.30;1.10;;;;;;;26.22;18.55;99184.63;108331;1251;61123;-67
2023/10/08 09:20:23;;;;;;;1.70;0.90;;;;;;;26.34;18.74;99185.39;108350;1251;60293;-69
2023/10/08 09:23:26;;;;;;;3.00;1.00;;;;;;;26.41;19.17;99181.52;108254;1251;73773;-69
2023/10/08 09:26:02;;;;;;;6.90;1.10;;;;;;;26.36;18.48;99191.48;107632;1260;72769;-70
2023/10/08 09:28:32;;;;;;;1.70;0.90;;;;;;;26.48;17.81;99190.04;108195;1256;71407;-67
2023/10/08 09:31:00;;;;;;;2.50;1.00;;;;;;;26.73;17.86;99193.83;108236;1251;61152;-68
2023/10/08 09:33:28;;;;;;;4.00;1.00;;;;;;;26.30;18.07;99189.88;108275;1251;59215;-68
2023/10/08 09:35:57;;;;;;;3.80;1.10;;;;;;;26.52;18.23;99187.60;108232;1251;73864;-68
2023/10/08 09:38:29;;;;;;;3.80;0.90;;;;;;;26.58;18.64;99190.88;108306;1251;68410;-69
2023/10/08 09:40:57;;;;;;;1.90;0.90;;;;;;;26.84;18.35;99184.77;108295;1253;72495;-69
2023/10/08 09:43:25;;;;;;;3.60;1.00;;;;;;;26.84;18.79;99190.09;108154;1251;60448;-69
2023/10/08 09:46:10;;;;;;;3.70;1.00;;;;;;;26.93;18.04;99199.31;108200;1251;59506;-67
2023/10/08 09:48:38;;;;;;;4.40;1.10;;;;;;;26.49;17.10;99199.67;108302;1251;74086;-67
2023/10/08 09:51:06;;;;;;;4.80;1.10;;;;;;;26.24;17.63;99202.15;108304;1251;68679;-69
2023/10/08 09:53:44;;;;;;;2.20;1.00;;;;;;;25.88;17.08;99188.77;108182;1251;71482;-68
2023/10/08 09:56:18;;;;;;;1.50;0.80;;;;;;;25.74;17.34;99198.55;108286;1251;60289;-69
2023/10/08 09:58:45;;;;;;;6.60;0.90;;;;;;;25.66;18.69;99196.38;108267;1251;59035;-68
2023/10/08 10:01:12;;;;;;;2.80;0.90;;;;;;;25.32;17.73;99202.37;108147;1251;73828;-69
2023/10/08 10:03:42;;;;;;;3.90;1.40;;;;;;;24.98;18.40;99210.71;108167;1251;70471;-68
2023/10/08 10:06:15;;;;;;;4.80;1.20;;;;;;;24.81;18.42;99208.66;108137;1251;73106;-69
2023/10/08 10:08:44;;;;;;;4.30;1.10;;;;;;;24.21;18.61;99210.86;108235;1251;60517;-69
2023/10/08 10:11:11;;;;;;;2.90;0.80;;;;;;;23.83;18.75;99216.12;108393;1251;60290;-68
2023/10/08 10:13:48;;;;;;;5.60;1.10;;;;;;;23.50;18.81;99219.30;108167;1251;74915;-69
2023/10/08 10:16:21;;;;;;;4.80;0.90;;;;;;;23.25;19.23;99211.98;108259;1251;70549;-69
2023/10/08 10:18:49;;;;;;;3.20;0.90;;;;;;;23.02;19.66;99209.86;108117;1254;71253;-66
2023/10/08 10:21:17;;;;;;;2.30;0.90;;;;;;;22.73;19.37;99212.63;108249;1251;60922;-68
2023/10/08 10:23:45;;;;;;;2.20;0.80;;;;;;;22.44;20.50;99215.41;108283;1251;60415;-69
2023/10/08 10:26:24;;;;;;;3.90;1.20;;;;;;;22.33;20.01;99218.50;108385;1251;73864;-69
2023/10/08 10:29:19;;;;;;;4.40;0.90;;;;;;;22.57;19.68;99219.09;108196;1251;69230;-67
2023/10/08 10:31:49;;;;;;;2.40;1.00;;;;;;;22.83;19.85;99216.05;108287;1251;72666;-69
2023/10/08 10:34:18;;;;;;;3.10;0.80;;;;;;;23.37;19.03;99207.60;108302;1251;60164;-68
2023/10/08 10:36:48;;;;;;;2.90;0.90;;;;;;;23.71;18.81;99199.02;108279;1251;60335;-68
2023/10/08 10:39:17;;;;;;;1.70;0.70;;;;;;;24.36;18.68;99198.58;108323;1251;72741;-70
2023/10/08 10:41:48;;;;;;;13.50;1.40;;;;;;;24.61;17.05;99194.52;108296;1251;70115;-67
2023/10/08 10:44:16;;;;;;;6.10;1.00;;;;;;;25.02;17.13;99195.93;108313;1251;72531;-68
2023/10/08 10:47:22;;;;;;;3.90;1.00;;;;;;;25.38;17.50;99197.05;108315;1251;60464;-69
2023/10/08 10:49:52;;;;;;;5.20;1.00;;;;;;;25.50;16.75;99199.31;108279;1251;60077;-69
2023/10/08 10:52:44;;;;;;;3.00;1.30;;;;;;;25.91;17.02;99185.96;108314;1251;73763;-69
2023/10/08 10:58:57;;;;;;;4.00;0.90;;;;;;;26.56;16.66;99191.48;108296;1252;72632;-69
2023/10/08 11:00:58;;;;;;;3.10;0.80;;;;;;;26.55;15.69;99194.11;108075;1253;60516;-68
2023/10/08 11:03:28;;;;;;;3.80;1.20;;;;;;;26.29;16.05;99185.27;108342;1251;60443;-69
2023/10/08 11:05:59;;;;;;;6.50;1.20;;;;;;;26.24;15.74;99186.39;108299;1251;73820;-68
2023/10/08 11:08:34;;;;;;;8.10;0.80;;;;;;;26.44;15.97;99192.88;108255;1256;70360;-69
2023/10/08 11:11:05;;;;;;;5.90;1.30;;;;;;;26.50;15.84;99184.05;108121;1254;71630;-68
2023/10/08 11:13:39;;;;;;;4.00;1.00;;;;;;;26.51;15.34;99189.92;108240;1251;62103;-69
2023/10/08 11:16:08;;;;;;;5.40;0.80;;;;;;;26.65;15.80;99198.96;108302;1251;60475;-67
2023/10/08 11:18:47;;;;;;;4.40;1.10;;;;;;;26.42;15.23;99189.27;108379;1251;73723;-67
2023/10/08 11:21:15;;;;;;;1.90;0.90;;;;;;;26.28;15.27;99189.39;108268;1251;69960;-70
2023/10/08 11:23:52;;;;;;;7.60;1.20;;;;;;;26.31;15.16;99192.77;108287;1251;72882;-70
2023/10/08 11:26:31;;;;;;;8.00;1.40;;;;;;;26.38;15.36;99183.63;108311;1255;60519;-69
2023/10/08 11:29:03;;;;;;;4.40;1.10;;;;;;;26.40;15.07;99186.53;108233;1251;60196;-70
2023/10/08 11:31:34;;;;;;;4.70;0.90;;;;;;;26.23;15.31;99186.55;108270;1251;73810;-69
2023/10/08 11:34:08;;;;;;;2.80;1.00;;;;;;;26.13;15.47;99192.38;108290;1251;70170;-68
2023/10/08 11:36:48;;;;;;;4.10;0.80;;;;;;;26.05;15.48;99190.67;108212;1251;71168;-69
2023/10/08 11:39:23;;;;;;;6.20;1.30;;;;;;;25.81;16.45;99183.27;108308;1251;60512;-68
2023/10/08 11:42:06;;;;;;;9.90;0.90;;;;;;;25.09;16.06;99187.16;108271;1254;60422;-69
2023/10/08 11:44:37;;;;;;;3.90;1.00;;;;;;;24.94;16.59;99191.60;108225;1254;73738;-69
2023/10/08 11:47:11;;;;;;;;;;;;;;;24.55;16.65;99191.19;108205;1254;70397;-68
2023/10/08 11:49:50;;;;;;;4.80;2.20;;;;;;;24.18;16.65;99182.89;108298;1254;71794;-68
2023/10/08 11:52:21;;;;;;;3.10;1.10;;;;;;;24.33;16.28;99183.77;108275;1254;60980;-69
2023/10/08 11:54:51;;;;;;;4.90;0.90;;;;;;;24.25;17.09;99179.04;108173;1254;60434;-68
2023/10/08 11:57:21;;;;;;;1.80;0.80;;;;;;;24.12;16.07;99179.58;108168;1254;74019;-68
2023/10/08 11:59:54;;;;;;;4.70;1.30;;;;;;;24.34;16.21;99180.92;108189;1253;70683;-69
2023/10/08 12:02:22;;;;;;;2.60;1.00;;;;;;;24.29;16.10;99190.49;108289;1254;73135;-68
2023/10/08 12:04:51;;;;;;;12.70;2.70;;;;;;;24.20;15.57;99187.16;108036;1257;60425;-68
2023/10/08 12:07:19;;;;;;;6.90;1.00;;;;;;;23.81;15.63;99188.32;108164;1254;60447;-66
2023/10/08 12:09:48;;;;;;;3.40;1.30;;;;;;;23.39;15.13;99192.60;108146;1254;73825;-67
2023/10/08 12:12:18;;;;;;;2.80;1.50;;;;;;;23.33;15.45;99194.59;108161;1254;69055;-69
2023/10/08 12:14:47;;;;;;;3.60;1.10;;;;;;;23.17;15.88;99198.79;108204;1256;72730;-69
2023/10/08 12:17:17;;;;;;;2.60;0.80;;;;;;;23.10;15.81;99190.45;108116;1253;60771;-67
2023/10/08 12:19:45;;;;;;;5.30;0.80;;;;;;;23.08;16.70;99196.15;108154;1254;59238;-69
2023/10/08 12:22:17;;;;;;;4.30;0.90;;;;;;;23.14;16.53;99189.63;108165;1254;76274;-67
2023/10/08 12:24:45;;;;;;;5.40;0.90;;;;;;;23.18;16.17;99199.09;108182;1254;70116;-67
2023/10/08 12:27:17;;;;;;;9.00;1.30;;;;;;;22.84;16.40;99190.80;108134;1254;72701;-69
2023/10/08 12:29:44;;;;;;;20.80;2.30;;;;;;;22.62;16.47;99195.84;108130;1256;60325;-66
2023/10/08 12:32:17;;;;;;;5.10;0.90;;;;;;;22.80;16.68;99191.86;108107;1254;60300;-67